createdAt,value
2023-02-16T00:02:10.652Z,48.85
2023-02-16T00:04:37.487Z,43.77
2023-02-16T00:07:04.289Z,47.50
2023-02-16T00:09:30.911Z,48.90
2023-02-16T00:12:16.676Z,49.20
2023-02-16T00:14:43.299Z,45.07
2023-02-16T00:17:10.998Z,44.40
2023-02-16T00:19:39.736Z,43.83
2023-02-16T00:22:07.517Z,50.53
2023-02-16T00:24:34.462Z,46.23
2023-02-16T00:27:01.530Z,49.53
2023-02-16T00:29:34.199Z,47.00
2023-02-16T00:32:04.060Z,53.50
2023-02-16T00:34:33.846Z,52.72
2023-02-16T00:37:03.500Z,44.20
2023-02-16T00:39:31.055Z,44.37
2023-02-16T00:42:07.188Z,51.63
2023-02-16T00:44:53.964Z,46.93
2023-02-16T00:47:40.243Z,49.00
2023-02-16T00:50:28.712Z,46.80
2023-02-16T00:52:58.543Z,42.67
2023-02-16T00:55:28.508Z,49.95
2023-02-16T00:58:05.816Z,35.10
2023-02-16T01:00:39.595Z,48.27
2023-02-16T01:03:11.788Z,48.53
2023-02-16T01:05:38.437Z,51.70
2023-02-16T01:08:32.405Z,44.13
2023-02-16T01:11:13.095Z,48.80
2023-02-16T01:13:45.159Z,43.00
2023-02-16T01:16:24.737Z,44.40
2023-02-16T01:18:52.757Z,41.37
2023-02-16T01:21:21.923Z,39.97
2023-02-16T01:23:48.833Z,42.47
2023-02-16T01:26:18.518Z,45.87
2023-02-16T01:28:45.836Z,44.43
2023-02-16T01:31:14.950Z,44.63
2023-02-16T01:33:42.936Z,48.20
2023-02-16T01:36:25.928Z,45.43
2023-02-16T01:38:52.650Z,44.97
2023-02-16T01:41:50.876Z,46.93
2023-02-16T01:44:24.004Z,44.07
2023-02-16T01:47:24.950Z,43.60
2023-02-16T01:52:36.185Z,40.87
2023-02-16T01:55:11.374Z,43.00
2023-02-16T01:57:45.379Z,43.27
2023-02-16T02:00:52.549Z,38.57
2023-02-16T02:03:42.291Z,43.47
2023-02-16T02:06:22.434Z,42.27
2023-02-16T02:09:03.765Z,40.58
2023-02-16T02:11:39.870Z,37.13
2023-02-16T02:14:13.452Z,41.07
2023-02-16T02:16:40.254Z,41.83
2023-02-16T02:19:06.990Z,44.83
2023-02-16T02:22:13.801Z,40.63
2023-02-16T02:24:58.639Z,45.93
2023-02-16T02:27:39.081Z,44.03
2023-02-16T02:30:57.963Z,43.28
2023-02-16T02:33:48.945Z,44.03
2023-02-16T02:39:17.564Z,38.87
2023-02-16T02:42:06.094Z,41.03
2023-02-16T02:44:46.261Z,38.00
2023-02-16T02:47:12.976Z,39.55
2023-02-16T02:49:39.648Z,36.67
2023-02-16T02:52:06.544Z,38.93
2023-02-16T02:54:59.939Z,40.50
2023-02-16T02:58:05.768Z,34.10
2023-02-16T03:00:44.271Z,46.47
2023-02-16T03:03:23.049Z,35.00
2023-02-16T03:05:57.448Z,37.83
2023-02-16T03:08:27.039Z,39.20
2023-02-16T03:11:24.082Z,37.63
2023-02-16T03:14:07.274Z,37.37
2023-02-16T03:16:45.152Z,40.53
2023-02-16T03:19:35.476Z,40.33
2023-02-16T03:22:21.514Z,41.67
2023-02-16T03:25:06.936Z,39.27
2023-02-16T03:27:57.603Z,38.87
2023-02-16T03:30:26.440Z,31.98
2023-02-16T03:32:54.034Z,37.90
2023-02-16T03:35:21.241Z,39.37
2023-02-16T03:37:48.056Z,36.37
2023-02-16T03:40:29.425Z,33.83
2023-02-16T03:42:59.532Z,35.80
2023-02-16T03:45:26.613Z,38.30
2023-02-16T03:47:53.756Z,36.97
2023-02-16T03:50:32.008Z,38.97
2023-02-16T03:53:08.013Z,39.17
2023-02-16T03:55:43.019Z,37.77
2023-02-16T03:58:12.619Z,41.50
2023-02-16T04:00:39.894Z,38.93
2023-02-16T04:03:09.142Z,38.77
2023-02-16T04:05:36.006Z,38.00
2023-02-16T04:08:03.302Z,33.87
2023-02-16T04:10:30.045Z,37.50
2023-02-16T04:12:56.686Z,36.03
2023-02-16T04:15:26.604Z,40.97
2023-02-16T04:17:54.195Z,36.33
2023-02-16T04:20:24.432Z,35.87
2023-02-16T04:22:51.545Z,38.78
2023-02-16T04:25:19.667Z,37.03
2023-02-16T04:27:47.163Z,41.83
2023-02-16T04:30:17.289Z,58.47
2023-02-16T04:32:44.233Z,70.47
2023-02-16T04:35:10.880Z,64.53
2023-02-16T04:37:37.856Z,66.23
2023-02-16T04:40:06.402Z,55.73
2023-02-16T04:42:33.060Z,52.80
2023-02-16T04:44:59.670Z,47.13
2023-02-16T04:47:26.852Z,38.70
2023-02-16T04:49:54.171Z,58.50
2023-02-16T04:52:20.862Z,59.23
2023-02-16T04:54:47.589Z,57.27
2023-02-16T04:57:14.383Z,41.80
2023-02-16T04:59:41.075Z,41.90
2023-02-16T05:02:07.868Z,33.30
2023-02-16T05:04:34.768Z,32.27
2023-02-16T05:07:01.485Z,35.67
2023-02-16T05:09:28.065Z,32.67
2023-02-16T05:12:13.271Z,32.70
2023-02-16T05:14:42.456Z,34.40
2023-02-16T05:17:18.039Z,34.63
2023-02-16T05:19:46.987Z,32.67
2023-02-16T05:22:14.102Z,32.27
2023-02-16T05:24:41.021Z,37.23
2023-02-16T05:27:12.104Z,33.03
2023-02-16T05:29:38.793Z,35.40
2023-02-16T05:32:06.723Z,34.90
2023-02-16T05:34:33.350Z,32.97
2023-02-16T05:37:00.033Z,36.23
2023-02-16T05:39:26.947Z,35.70
2023-02-16T05:41:53.792Z,34.87
2023-02-16T05:44:20.389Z,36.10
2023-02-16T05:46:47.015Z,35.10
2023-02-16T05:49:15.027Z,31.90
2023-02-16T05:51:42.764Z,36.03
2023-02-16T05:54:11.685Z,30.43
2023-02-16T05:56:38.277Z,31.60
2023-02-16T05:59:04.927Z,33.50
2023-02-16T06:01:34.757Z,30.80
2023-02-16T06:04:01.486Z,32.90
2023-02-16T06:06:30.148Z,34.57
2023-02-16T06:08:56.897Z,38.17
2023-02-16T06:11:38.602Z,34.77
2023-02-16T06:14:16.138Z,34.20
2023-02-16T06:16:44.632Z,33.10
2023-02-16T06:19:11.928Z,34.20
2023-02-16T06:21:39.914Z,38.07
2023-02-16T06:24:07.678Z,34.57
2023-02-16T06:26:35.438Z,42.60
2023-02-16T06:29:03.006Z,34.00
2023-02-16T06:31:29.735Z,38.07
2023-02-16T06:33:57.161Z,42.07
2023-02-16T06:36:24.464Z,37.03
2023-02-16T06:38:51.160Z,43.23
2023-02-16T06:41:31.683Z,32.60
2023-02-16T06:44:02.213Z,44.47
2023-02-16T06:46:29.338Z,37.63
2023-02-16T06:48:56.201Z,35.23
2023-02-16T06:51:23.173Z,33.77
2023-02-16T06:53:49.888Z,37.43
2023-02-16T06:56:16.759Z,33.67
2023-02-16T06:58:43.543Z,32.67
2023-02-16T07:01:10.551Z,33.10
2023-02-16T07:03:37.402Z,36.47
2023-02-16T07:06:04.443Z,34.43
2023-02-16T07:08:31.036Z,34.70
2023-02-16T07:10:57.760Z,34.90
2023-02-16T07:13:24.360Z,33.43
2023-02-16T07:15:51.091Z,32.70
2023-02-16T07:18:17.840Z,32.50
2023-02-16T07:20:44.564Z,32.63
2023-02-16T07:23:11.132Z,34.70
2023-02-16T07:25:37.668Z,30.40
2023-02-16T07:28:04.645Z,30.30
2023-02-16T07:30:31.477Z,33.30
2023-02-16T07:32:58.192Z,35.13
2023-02-16T07:35:25.066Z,27.07
2023-02-16T07:37:51.647Z,32.20
2023-02-16T07:40:18.349Z,26.67
2023-02-16T07:42:44.887Z,29.90
2023-02-16T07:45:11.551Z,30.80
2023-02-16T07:47:38.134Z,31.13
2023-02-16T07:50:05.472Z,27.20
2023-02-16T07:52:32.238Z,27.07
2023-02-16T07:54:59.242Z,30.37
2023-02-16T07:57:27.380Z,29.00
2023-02-16T07:59:54.757Z,28.63
2023-02-16T08:02:22.503Z,28.80
2023-02-16T08:04:49.546Z,30.20
2023-02-16T08:07:17.869Z,26.27
2023-02-16T08:09:45.029Z,32.43
2023-02-16T08:12:15.395Z,30.73
2023-02-16T08:14:42.418Z,26.33
2023-02-16T08:17:10.056Z,29.10
2023-02-16T08:19:40.494Z,26.10
2023-02-16T08:22:09.108Z,25.67
2023-02-16T08:24:36.089Z,29.10
2023-02-16T08:27:04.798Z,25.53
2023-02-16T08:29:33.186Z,27.73
2023-02-16T08:32:00.091Z,26.23
2023-02-16T08:34:27.051Z,28.70
2023-02-16T08:36:56.802Z,27.80
2023-02-16T08:39:26.979Z,28.13
2023-02-16T08:41:54.775Z,26.17
2023-02-16T08:44:23.745Z,26.60
2023-02-16T08:46:52.378Z,25.10
2023-02-16T08:49:21.891Z,26.73
2023-02-16T08:51:51.447Z,26.98
2023-02-16T08:54:30.537Z,29.20
2023-02-16T08:56:59.026Z,29.07
2023-02-16T08:59:28.476Z,26.23
2023-02-16T09:01:57.040Z,24.40
2023-02-16T09:04:25.534Z,24.73
2023-02-16T09:06:52.586Z,23.90
2023-02-16T09:09:19.621Z,28.23
2023-02-16T09:11:46.920Z,25.87
2023-02-16T09:14:13.916Z,26.80
2023-02-16T09:16:45.671Z,26.23
2023-02-16T09:19:18.482Z,27.07
2023-02-16T09:21:46.970Z,25.90
2023-02-16T09:24:13.696Z,24.57
2023-02-16T09:26:44.760Z,25.42
2023-02-16T09:29:12.674Z,24.07
2023-02-16T09:31:40.506Z,25.20
2023-02-16T09:34:18.580Z,24.47
2023-02-16T09:36:46.020Z,23.10
2023-02-16T09:39:13.996Z,26.83
2023-02-16T09:41:40.573Z,23.20
2023-02-16T09:44:33.152Z,22.63
2023-02-16T09:47:03.603Z,27.20
2023-02-16T09:49:39.011Z,23.57
2023-02-16T09:52:08.551Z,21.07
2023-02-16T09:54:55.404Z,24.95
2023-02-16T09:57:56.852Z,24.07
2023-02-16T10:00:32.582Z,23.70
2023-02-16T10:03:41.458Z,21.70
2023-02-16T10:06:17.524Z,22.43
2023-02-16T10:08:57.398Z,22.97
2023-02-16T10:11:46.896Z,19.65
2023-02-16T10:14:34.870Z,21.33
2023-02-16T10:17:30.999Z,20.43
2023-02-16T10:20:09.398Z,19.10
2023-02-16T10:22:50.076Z,18.37
2023-02-16T10:25:21.673Z,19.40
2023-02-16T10:27:58.459Z,18.77
2023-02-16T10:30:25.159Z,21.70
2023-02-16T10:33:10.116Z,21.93
2023-02-16T10:35:49.865Z,20.17
2023-02-16T10:38:47.616Z,22.80
2023-02-16T10:41:26.314Z,19.80
2023-02-16T10:44:10.116Z,17.97
2023-02-16T10:46:42.119Z,22.03
2023-02-16T10:49:12.986Z,21.10
2023-02-16T10:51:41.092Z,19.67
2023-02-16T10:54:14.640Z,18.27
2023-02-16T10:56:52.433Z,19.53
2023-02-16T10:59:22.262Z,19.00
2023-02-16T11:01:59.980Z,20.98
2023-02-16T11:04:42.082Z,22.40
2023-02-16T11:07:19.257Z,18.23
2023-02-16T11:09:51.303Z,17.60
2023-02-16T11:12:28.457Z,18.87
2023-02-16T11:15:06.246Z,18.30
2023-02-16T11:17:55.414Z,18.57
2023-02-16T11:20:48.102Z,19.23
2023-02-16T11:23:24.740Z,18.47
2023-02-16T11:25:57.580Z,19.97
2023-02-16T11:28:53.630Z,24.03
2023-02-16T11:31:33.979Z,19.53
2023-02-16T11:34:06.570Z,21.47
2023-02-16T11:36:33.126Z,19.27
2023-02-16T11:39:17.318Z,22.67
2023-02-16T11:41:53.418Z,23.77
2023-02-16T11:44:35.780Z,24.30
2023-02-16T11:47:41.990Z,21.07
2023-02-16T11:50:23.472Z,22.47
2023-02-16T11:52:56.478Z,20.67
2023-02-16T11:55:34.539Z,20.13
2023-02-16T11:58:36.741Z,21.60
2023-02-16T12:01:29.213Z,23.90
2023-02-16T12:04:44.133Z,17.43
2023-02-16T12:07:27.254Z,23.90
2023-02-16T12:10:10.972Z,19.57
2023-02-16T12:13:08.277Z,20.23
2023-02-16T12:15:55.104Z,18.43
2023-02-16T12:18:53.932Z,21.83
2023-02-16T12:21:28.881Z,16.70
2023-02-16T12:23:58.459Z,19.67
2023-02-16T12:26:37.197Z,20.38
2023-02-16T12:29:12.898Z,20.57
2023-02-16T12:31:51.521Z,20.13
2023-02-16T12:34:28.644Z,19.83
2023-02-16T12:37:13.972Z,17.00
2023-02-16T12:39:58.576Z,15.73
2023-02-16T12:42:30.806Z,18.50
2023-02-16T12:45:03.951Z,16.47
2023-02-16T12:47:39.948Z,16.33
2023-02-16T12:50:22.832Z,17.50
2023-02-16T12:53:03.725Z,17.23
2023-02-16T12:55:54.489Z,23.03
2023-02-16T12:58:28.702Z,21.53
2023-02-16T13:01:04.225Z,18.57
2023-02-16T13:03:53.072Z,16.40
2023-02-16T13:06:22.570Z,17.53
2023-02-16T13:09:12.097Z,18.80
2023-02-16T13:11:46.444Z,19.38
2023-02-16T13:14:25.500Z,18.00
2023-02-16T13:17:17.942Z,15.70
2023-02-16T13:19:46.820Z,15.70
2023-02-16T13:22:39.448Z,18.23
2023-02-16T13:25:08.153Z,17.83
2023-02-16T13:27:55.275Z,15.13
2023-02-16T13:31:00.206Z,17.43
2023-02-16T13:33:44.211Z,17.23
2023-02-16T13:36:38.486Z,15.60
2023-02-16T13:39:17.690Z,15.67
2023-02-16T13:41:59.829Z,15.48
2023-02-16T13:44:32.487Z,16.03
2023-02-16T13:47:02.704Z,15.97
2023-02-16T13:49:29.310Z,24.30
2023-02-16T13:51:56.361Z,18.43
2023-02-16T13:54:34.540Z,16.13
2023-02-16T13:57:04.367Z,15.23
2023-02-16T13:59:36.903Z,14.25
2023-02-16T14:02:09.764Z,14.43
2023-02-16T14:04:36.318Z,14.67
2023-02-16T14:07:03.490Z,16.20
2023-02-16T14:09:39.210Z,16.83
2023-02-16T14:12:09.453Z,15.83
2023-02-16T14:14:36.037Z,17.70
2023-02-16T14:17:31.159Z,16.23
2023-02-16T14:20:27.283Z,17.60
2023-02-16T14:22:57.554Z,15.50
2023-02-16T14:25:24.105Z,16.10
2023-02-16T14:27:54.999Z,17.87
2023-02-16T14:30:32.048Z,16.37
2023-02-16T14:33:07.623Z,15.83
2023-02-16T14:35:44.270Z,17.33
2023-02-16T14:38:35.590Z,17.63
2023-02-16T14:41:06.491Z,15.27
2023-02-16T14:43:35.722Z,21.33
2023-02-16T14:46:26.187Z,20.10
2023-02-16T14:49:38.210Z,18.20
2023-02-16T14:52:18.996Z,18.73
2023-02-16T14:55:23.493Z,18.90
2023-02-16T14:58:23.715Z,18.10
2023-02-16T15:00:56.372Z,19.25
2023-02-16T15:03:25.692Z,18.00
2023-02-16T15:06:06.101Z,19.15
2023-02-16T15:08:38.166Z,18.23
2023-02-16T15:12:01.768Z,19.93
2023-02-16T15:14:30.166Z,19.43
2023-02-16T15:16:58.331Z,18.53
2023-02-16T15:19:30.164Z,21.43
2023-02-16T15:22:30.496Z,21.47
2023-02-16T15:25:08.256Z,19.02
2023-02-16T15:27:34.858Z,21.67
2023-02-16T15:30:22.456Z,19.17
2023-02-16T15:32:56.600Z,17.70
2023-02-16T15:35:30.828Z,17.60
2023-02-16T15:38:13.258Z,23.37
2023-02-16T15:40:40.838Z,20.93
2023-02-16T15:43:40.520Z,24.87
2023-02-16T15:46:33.945Z,27.17
2023-02-16T15:49:30.429Z,28.60
2023-02-16T15:51:58.038Z,29.73
2023-02-16T15:54:32.061Z,26.23
2023-02-16T15:57:01.446Z,27.33
2023-02-16T15:59:38.612Z,25.67
2023-02-16T16:02:20.513Z,26.07
2023-02-16T16:04:54.926Z,27.00
2023-02-16T16:07:41.567Z,28.10
2023-02-16T16:10:16.970Z,27.03
2023-02-16T16:12:45.039Z,31.10
2023-02-16T16:15:20.827Z,41.73
2023-02-16T16:17:47.699Z,36.33
2023-02-16T16:20:37.307Z,40.10
2023-02-16T16:23:14.199Z,57.72
2023-02-16T16:25:46.736Z,64.13
2023-02-16T16:28:28.757Z,58.33
2023-02-16T16:31:35.066Z,57.37
2023-02-16T16:34:07.861Z,62.70
2023-02-16T16:36:47.033Z,57.60
2023-02-16T16:39:16.494Z,53.93
2023-02-16T16:42:06.554Z,49.67
2023-02-16T16:44:41.212Z,48.25
2023-02-16T16:47:20.647Z,40.33
2023-02-16T16:49:52.168Z,38.73
2023-02-16T16:52:48.875Z,44.83
2023-02-16T16:55:27.365Z,52.63
2023-02-16T16:57:58.989Z,50.97
2023-02-16T17:00:34.585Z,45.03
2023-02-16T17:03:05.025Z,42.40
2023-02-16T17:07:58.968Z,44.40
2023-02-16T17:10:25.740Z,57.73
2023-02-16T17:12:56.001Z,52.17
2023-02-16T17:15:59.103Z,51.65
2023-02-16T17:18:25.785Z,55.67
2023-02-16T17:20:52.807Z,50.83
2023-02-16T17:23:36.648Z,45.30
2023-02-16T17:26:03.631Z,42.50
2023-02-16T17:28:36.769Z,47.97
2023-02-16T17:31:04.734Z,44.03
2023-02-16T17:33:31.597Z,40.80
2023-02-16T17:35:59.160Z,47.37
2023-02-16T17:38:25.993Z,47.17
2023-02-16T17:40:55.292Z,40.97
2023-02-16T17:43:23.732Z,44.57
2023-02-16T17:45:51.802Z,42.40
2023-02-16T17:48:21.586Z,43.13
2023-02-16T17:50:50.793Z,47.47
2023-02-16T17:53:23.457Z,44.90
2023-02-16T17:55:53.470Z,36.97
2023-02-16T17:58:21.786Z,43.33
2023-02-16T18:00:49.627Z,43.20
2023-02-16T18:03:16.923Z,42.47
2023-02-16T18:05:44.186Z,42.50
2023-02-16T18:08:12.454Z,35.60
2023-02-16T18:10:45.603Z,40.13
2023-02-16T18:13:13.846Z,36.03
2023-02-16T18:15:43.440Z,33.47
2023-02-16T18:18:10.204Z,39.83
2023-02-16T18:20:37.293Z,34.97
2023-02-16T18:23:04.763Z,34.23
2023-02-16T18:25:32.412Z,38.13
2023-02-16T18:27:59.149Z,39.33
2023-02-16T18:30:26.200Z,39.10
2023-02-16T18:32:53.014Z,46.30
2023-02-16T18:35:20.466Z,44.43
2023-02-16T18:37:47.786Z,51.13
2023-02-16T18:40:17.747Z,48.77
2023-02-16T18:42:44.769Z,47.15
2023-02-16T18:45:12.003Z,43.50
2023-02-16T18:47:39.354Z,43.93
2023-02-16T18:50:06.869Z,43.73
2023-02-16T18:52:33.770Z,40.87
2023-02-16T18:55:00.609Z,44.80
2023-02-16T18:57:27.573Z,47.30
2023-02-16T18:59:54.411Z,41.73
2023-02-16T19:02:21.523Z,40.33
2023-02-16T19:04:48.480Z,48.00
2023-02-16T19:07:15.455Z,43.50
2023-02-16T19:09:42.223Z,42.07
2023-02-16T19:12:09.091Z,37.80
2023-02-16T19:14:35.828Z,45.20
2023-02-16T19:17:03.900Z,43.30
2023-02-16T19:19:31.067Z,42.17
2023-02-16T19:21:57.756Z,43.40
2023-02-16T19:24:24.948Z,43.27
2023-02-16T19:26:51.917Z,49.83
2023-02-16T19:29:18.715Z,41.10
2023-02-16T19:31:47.882Z,40.87
2023-02-16T19:34:15.079Z,46.90
2023-02-16T19:36:41.896Z,41.70
2023-02-16T19:39:08.948Z,43.57
2023-02-16T19:41:38.238Z,42.33
2023-02-16T19:44:05.843Z,41.23
2023-02-16T19:46:40.975Z,43.03
2023-02-16T19:49:08.061Z,43.97
2023-02-16T19:51:34.668Z,41.83
2023-02-16T19:54:01.274Z,44.17
2023-02-16T19:56:27.954Z,47.40
2023-02-16T19:58:57.219Z,42.30
2023-02-16T20:01:25.937Z,48.53
2023-02-16T20:03:53.373Z,51.97
2023-02-16T20:06:29.174Z,48.43
2023-02-16T20:08:56.847Z,55.90
2023-02-16T20:11:26.556Z,72.60
2023-02-16T20:13:53.461Z,78.55
2023-02-16T20:16:21.426Z,84.83
2023-02-16T20:18:48.809Z,68.27
2023-02-16T20:21:18.121Z,65.23
2023-02-16T20:23:45.644Z,74.27
2023-02-16T20:26:20.818Z,61.50
2023-02-16T20:28:49.909Z,63.97
2023-02-16T20:31:28.971Z,55.10
2023-02-16T20:33:56.472Z,49.30
2023-02-16T20:36:23.370Z,44.80
2023-02-16T20:38:50.751Z,45.90
2023-02-16T20:41:24.419Z,60.17
2023-02-16T20:43:51.604Z,50.00
2023-02-16T20:46:19.251Z,46.00
2023-02-16T20:48:46.301Z,47.17
2023-02-16T20:51:16.352Z,46.23
2023-02-16T20:53:43.325Z,45.17
2023-02-16T20:56:16.736Z,46.83
2023-02-16T20:58:44.908Z,52.23
2023-02-16T21:01:19.017Z,46.23
2023-02-16T21:03:45.767Z,50.07
2023-02-16T21:06:12.496Z,49.77
2023-02-16T21:08:39.131Z,44.03
2023-02-16T21:11:05.995Z,43.37
2023-02-16T21:13:33.083Z,53.83
2023-02-16T21:15:59.977Z,44.80
2023-02-16T21:18:26.663Z,47.10
2023-02-16T21:20:53.481Z,47.80
2023-02-16T21:23:20.096Z,48.37
2023-02-16T21:25:46.852Z,53.90
2023-02-16T21:28:13.774Z,49.30
2023-02-16T21:30:41.002Z,46.93
2023-02-16T21:33:07.608Z,43.90
2023-02-16T21:35:34.283Z,48.50
2023-02-16T21:38:01.252Z,43.93
2023-02-16T21:40:46.375Z,49.33
2023-02-16T21:43:12.956Z,45.53
2023-02-16T21:45:39.569Z,41.30
2023-02-16T21:48:24.874Z,46.33
2023-02-16T21:50:51.737Z,45.37
2023-02-16T21:53:18.332Z,43.37
2023-02-16T21:56:03.905Z,49.23
2023-02-16T21:58:33.707Z,47.43
2023-02-16T22:01:00.605Z,51.53
2023-02-16T22:03:28.137Z,45.97
2023-02-16T22:05:54.784Z,48.70
2023-02-16T22:08:21.549Z,47.43
2023-02-16T22:10:48.145Z,42.97
2023-02-16T22:13:15.645Z,45.67
2023-02-16T22:15:42.381Z,46.83
2023-02-16T22:18:09.099Z,44.67
2023-02-16T22:20:36.097Z,45.10
2023-02-16T22:23:03.531Z,47.30
2023-02-16T22:25:30.189Z,46.67
2023-02-16T22:27:56.821Z,46.43
2023-02-16T22:30:23.523Z,48.97
2023-02-16T22:32:51.421Z,50.77
2023-02-16T22:35:18.371Z,51.37
2023-02-16T22:37:45.138Z,46.00
2023-02-16T22:40:11.870Z,48.57
2023-02-16T22:42:38.613Z,44.10
2023-02-16T22:45:05.626Z,48.20
2023-02-16T22:47:32.339Z,45.97
2023-02-16T22:49:59.571Z,47.87
2023-02-16T22:52:26.186Z,46.73
2023-02-16T22:54:52.955Z,46.47
2023-02-16T22:57:19.937Z,47.57
2023-02-16T22:59:46.567Z,48.50
2023-02-16T23:02:13.310Z,50.77
2023-02-16T23:04:42.381Z,45.10
2023-02-16T23:07:10.192Z,49.27
2023-02-16T23:09:36.950Z,42.53
2023-02-16T23:12:03.659Z,47.90
2023-02-16T23:14:30.430Z,47.00
2023-02-16T23:16:57.175Z,49.40
2023-02-16T23:19:26.350Z,41.50
2023-02-16T23:21:54.120Z,45.67
2023-02-16T23:24:23.158Z,45.60
2023-02-16T23:29:18.895Z,42.47
2023-02-16T23:31:47.312Z,49.63
2023-02-16T23:34:15.317Z,43.50
2023-02-16T23:36:43.861Z,42.07
2023-02-16T23:39:13.120Z,40.07
2023-02-16T23:41:40.416Z,42.77
2023-02-16T23:44:07.616Z,45.30
2023-02-16T23:46:34.449Z,46.10
2023-02-16T23:49:01.393Z,45.10
2023-02-16T23:51:28.179Z,45.03
2023-02-16T23:53:55.132Z,50.40
2023-02-16T23:56:24.820Z,41.97
2023-02-16T23:58:52.743Z,45.00
